sensor_id;sensor_type;location;lat;lon;timestamp;P1;durP1;ratioP1;P2;durP2;ratioP2
31594;SDS011;18200;48.726;8.892;2023-07-22T00:01:21;5.20;;;3.30;;
31594;SDS011;18200;48.726;8.892;2023-07-22T00:05:22;4.43;;;2.83;;
31594;SDS011;18200;48.726;8.892;2023-07-22T00:09:23;5.25;;;3.05;;
31594;SDS011;18200;48.726;8.892;2023-07-22T00:13:24;6.70;;;2.88;;
31594;SDS011;18200;48.726;8.892;2023-07-22T00:17:26;4.55;;;2.70;;
31594;SDS011;18200;48.726;8.892;2023-07-22T00:21:27;4.72;;;2.95;;
31594;SDS011;18200;48.726;8.892;2023-07-22T00:25:29;5.47;;;2.88;;
31594;SDS011;18200;48.726;8.892;2023-07-22T00:29:29;4.68;;;3.03;;
31594;SDS011;18200;48.726;8.892;2023-07-22T00:33:29;5.90;;;3.13;;
31594;SDS011;18200;48.726;8.892;2023-07-22T00:37:30;7.68;;;2.60;;
31594;SDS011;18200;48.726;8.892;2023-07-22T00:41:31;6.53;;;2.92;;
31594;SDS011;18200;48.726;8.892;2023-07-22T00:45:31;3.63;;;2.58;;
31594;SDS011;18200;48.726;8.892;2023-07-22T00:49:32;5.10;;;2.97;;
31594;SDS011;18200;48.726;8.892;2023-07-22T00:53:34;4.05;;;3.00;;
31594;SDS011;18200;48.726;8.892;2023-07-22T00:57:36;3.50;;;2.58;;
31594;SDS011;18200;48.726;8.892;2023-07-22T01:01:37;4.47;;;2.85;;
31594;SDS011;18200;48.726;8.892;2023-07-22T01:05:38;5.00;;;2.95;;
31594;SDS011;18200;48.726;8.892;2023-07-22T01:09:40;5.28;;;3.17;;
31594;SDS011;18200;48.726;8.892;2023-07-22T01:13:41;4.47;;;2.80;;
31594;SDS011;18200;48.726;8.892;2023-07-22T01:17:41;5.57;;;3.33;;
31594;SDS011;18200;48.726;8.892;2023-07-22T01:21:42;4.40;;;3.10;;
31594;SDS011;18200;48.726;8.892;2023-07-22T01:25:43;4.90;;;3.00;;
31594;SDS011;18200;48.726;8.892;2023-07-22T01:29:44;5.88;;;3.45;;
31594;SDS011;18200;48.726;8.892;2023-07-22T01:33:44;7.15;;;3.45;;
31594;SDS011;18200;48.726;8.892;2023-07-22T01:37:45;5.65;;;3.42;;
31594;SDS011;18200;48.726;8.892;2023-07-22T01:41:45;5.22;;;3.47;;
31594;SDS011;18200;48.726;8.892;2023-07-22T01:45:46;5.63;;;3.50;;
31594;SDS011;18200;48.726;8.892;2023-07-22T01:49:46;4.97;;;3.25;;
31594;SDS011;18200;48.726;8.892;2023-07-22T01:53:47;5.47;;;3.20;;
31594;SDS011;18200;48.726;8.892;2023-07-22T01:57:47;3.40;;;2.70;;
31594;SDS011;18200;48.726;8.892;2023-07-22T02:01:48;5.28;;;3.42;;
31594;SDS011;18200;48.726;8.892;2023-07-22T02:05:48;6.88;;;3.38;;
31594;SDS011;18200;48.726;8.892;2023-07-22T02:09:48;5.68;;;3.28;;
31594;SDS011;18200;48.726;8.892;2023-07-22T02:13:52;4.75;;;3.20;;
31594;SDS011;18200;48.726;8.892;2023-07-22T02:17:52;6.93;;;3.42;;
31594;SDS011;18200;48.726;8.892;2023-07-22T02:21:55;7.70;;;3.70;;
31594;SDS011;18200;48.726;8.892;2023-07-22T02:25:55;5.80;;;3.42;;
31594;SDS011;18200;48.726;8.892;2023-07-22T02:29:56;4.53;;;2.90;;
31594;SDS011;18200;48.726;8.892;2023-07-22T02:33:56;5.32;;;2.95;;
31594;SDS011;18200;48.726;8.892;2023-07-22T02:37:56;4.93;;;3.08;;
31594;SDS011;18200;48.726;8.892;2023-07-22T02:41:57;5.13;;;3.58;;
31594;SDS011;18200;48.726;8.892;2023-07-22T02:45:59;5.20;;;3.33;;
31594;SDS011;18200;48.726;8.892;2023-07-22T02:50:01;7.57;;;3.60;;
31594;SDS011;18200;48.726;8.892;2023-07-22T02:54:03;6.93;;;3.72;;
31594;SDS011;18200;48.726;8.892;2023-07-22T02:58:04;6.15;;;3.33;;
31594;SDS011;18200;48.726;8.892;2023-07-22T03:02:05;6.15;;;3.65;;
31594;SDS011;18200;48.726;8.892;2023-07-22T03:06:06;6.10;;;3.42;;
31594;SDS011;18200;48.726;8.892;2023-07-22T03:10:08;4.38;;;3.60;;
31594;SDS011;18200;48.726;8.892;2023-07-22T03:14:08;7.18;;;3.92;;
31594;SDS011;18200;48.726;8.892;2023-07-22T03:18:09;4.82;;;3.58;;
31594;SDS011;18200;48.726;8.892;2023-07-22T03:22:13;6.93;;;4.13;;
31594;SDS011;18200;48.726;8.892;2023-07-22T03:26:16;5.90;;;4.00;;
31594;SDS011;18200;48.726;8.892;2023-07-22T03:30:17;6.40;;;3.72;;
31594;SDS011;18200;48.726;8.892;2023-07-22T03:34:18;6.97;;;3.97;;
31594;SDS011;18200;48.726;8.892;2023-07-22T03:38:18;6.88;;;3.95;;
31594;SDS011;18200;48.726;8.892;2023-07-22T03:42:19;7.55;;;3.50;;
31594;SDS011;18200;48.726;8.892;2023-07-22T03:46:19;7.18;;;3.50;;
31594;SDS011;18200;48.726;8.892;2023-07-22T03:50:20;8.35;;;4.72;;
31594;SDS011;18200;48.726;8.892;2023-07-22T03:54:20;7.20;;;3.33;;
31594;SDS011;18200;48.726;8.892;2023-07-22T03:58:20;6.88;;;3.95;;
31594;SDS011;18200;48.726;8.892;2023-07-22T04:02:21;9.93;;;3.85;;
31594;SDS011;18200;48.726;8.892;2023-07-22T04:06:22;8.93;;;4.28;;
31594;SDS011;18200;48.726;8.892;2023-07-22T04:10:22;4.85;;;3.55;;
31594;SDS011;18200;48.726;8.892;2023-07-22T04:14:23;6.93;;;3.80;;
31594;SDS011;18200;48.726;8.892;2023-07-22T04:18:25;7.63;;;3.75;;
31594;SDS011;18200;48.726;8.892;2023-07-22T04:22:25;8.25;;;4.20;;
31594;SDS011;18200;48.726;8.892;2023-07-22T04:26:25;6.60;;;4.13;;
31594;SDS011;18200;48.726;8.892;2023-07-22T04:30:27;8.13;;;4.38;;
31594;SDS011;18200;48.726;8.892;2023-07-22T04:34:28;6.25;;;3.78;;
31594;SDS011;18200;48.726;8.892;2023-07-22T04:38:32;7.40;;;4.05;;
31594;SDS011;18200;48.726;8.892;2023-07-22T04:42:32;5.03;;;3.67;;
31594;SDS011;18200;48.726;8.892;2023-07-22T04:46:32;7.88;;;3.78;;
31594;SDS011;18200;48.726;8.892;2023-07-22T04:50:33;6.40;;;3.97;;
31594;SDS011;18200;48.726;8.892;2023-07-22T04:54:33;6.00;;;3.40;;
31594;SDS011;18200;48.726;8.892;2023-07-22T04:58:34;5.78;;;3.90;;
31594;SDS011;18200;48.726;8.892;2023-07-22T05:02:34;5.32;;;3.65;;
31594;SDS011;18200;48.726;8.892;2023-07-22T05:06:35;6.70;;;3.78;;
31594;SDS011;18200;48.726;8.892;2023-07-22T05:10:36;6.43;;;3.55;;
31594;SDS011;18200;48.726;8.892;2023-07-22T05:14:37;5.40;;;3.55;;
31594;SDS011;18200;48.726;8.892;2023-07-22T05:18:38;6.85;;;3.78;;
31594;SDS011;18200;48.726;8.892;2023-07-22T05:22:39;6.05;;;3.45;;
31594;SDS011;18200;48.726;8.892;2023-07-22T05:26:39;4.95;;;3.17;;
31594;SDS011;18200;48.726;8.892;2023-07-22T05:30:40;7.55;;;3.15;;
31594;SDS011;18200;48.726;8.892;2023-07-22T05:34:40;5.00;;;3.60;;
31594;SDS011;18200;48.726;8.892;2023-07-22T05:38:41;8.05;;;3.53;;
31594;SDS011;18200;48.726;8.892;2023-07-22T05:42:41;4.75;;;3.38;;
31594;SDS011;18200;48.726;8.892;2023-07-22T05:46:41;8.43;;;3.40;;
31594;SDS011;18200;48.726;8.892;2023-07-22T05:50:42;4.22;;;3.17;;
31594;SDS011;18200;48.726;8.892;2023-07-22T05:54:43;5.72;;;3.33;;
31594;SDS011;18200;48.726;8.892;2023-07-22T05:58:43;5.50;;;3.40;;
31594;SDS011;18200;48.726;8.892;2023-07-22T06:02:44;4.78;;;2.70;;
31594;SDS011;18200;48.726;8.892;2023-07-22T06:06:44;4.55;;;2.92;;
31594;SDS011;18200;48.726;8.892;2023-07-22T06:10:44;4.53;;;2.70;;
31594;SDS011;18200;48.726;8.892;2023-07-22T06:14:45;3.90;;;2.50;;
31594;SDS011;18200;48.726;8.892;2023-07-22T06:18:45;6.88;;;2.80;;
31594;SDS011;18200;48.726;8.892;2023-07-22T06:22:46;4.15;;;2.95;;
31594;SDS011;18200;48.726;8.892;2023-07-22T06:26:46;5.85;;;2.88;;
31594;SDS011;18200;48.726;8.892;2023-07-22T06:30:47;5.55;;;2.92;;
31594;SDS011;18200;48.726;8.892;2023-07-22T06:34:47;5.25;;;2.88;;
31594;SDS011;18200;48.726;8.892;2023-07-22T06:38:47;5.57;;;2.90;;
31594;SDS011;18200;48.726;8.892;2023-07-22T06:42:48;3.15;;;2.22;;
31594;SDS011;18200;48.726;8.892;2023-07-22T06:46:48;4.55;;;2.53;;
31594;SDS011;18200;48.726;8.892;2023-07-22T06:50:49;4.47;;;2.42;;
31594;SDS011;18200;48.726;8.892;2023-07-22T06:54:49;3.30;;;2.38;;
31594;SDS011;18200;48.726;8.892;2023-07-22T06:58:50;4.88;;;2.15;;
31594;SDS011;18200;48.726;8.892;2023-07-22T07:02:51;3.38;;;2.25;;
31594;SDS011;18200;48.726;8.892;2023-07-22T07:06:51;3.53;;;2.47;;
31594;SDS011;18200;48.726;8.892;2023-07-22T07:10:52;6.20;;;3.60;;
31594;SDS011;18200;48.726;8.892;2023-07-22T07:14:52;5.32;;;2.30;;
31594;SDS011;18200;48.726;8.892;2023-07-22T07:18:53;7.22;;;2.75;;
31594;SDS011;18200;48.726;8.892;2023-07-22T07:22:55;4.40;;;2.08;;
31594;SDS011;18200;48.726;8.892;2023-07-22T07:26:55;3.33;;;2.47;;
31594;SDS011;18200;48.726;8.892;2023-07-22T07:30:56;4.70;;;2.15;;
31594;SDS011;18200;48.726;8.892;2023-07-22T07:34:56;3.83;;;2.20;;
31594;SDS011;18200;48.726;8.892;2023-07-22T07:38:56;4.75;;;2.17;;
31594;SDS011;18200;48.726;8.892;2023-07-22T07:42:57;4.45;;;2.33;;
31594;SDS011;18200;48.726;8.892;2023-07-22T07:46:57;4.70;;;2.10;;
31594;SDS011;18200;48.726;8.892;2023-07-22T07:50:57;6.50;;;1.90;;
31594;SDS011;18200;48.726;8.892;2023-07-22T07:54:58;2.92;;;1.90;;
31594;SDS011;18200;48.726;8.892;2023-07-22T07:58:58;2.47;;;1.80;;
31594;SDS011;18200;48.726;8.892;2023-07-22T08:02:58;1.77;;;1.60;;
31594;SDS011;18200;48.726;8.892;2023-07-22T08:06:59;2.42;;;1.60;;
31594;SDS011;18200;48.726;8.892;2023-07-22T08:15:03;5.28;;;1.48;;
31594;SDS011;18200;48.726;8.892;2023-07-22T08:19:04;3.65;;;1.65;;
31594;SDS011;18200;48.726;8.892;2023-07-22T08:23:05;5.30;;;1.98;;
31594;SDS011;18200;48.726;8.892;2023-07-22T08:27:05;5.82;;;2.00;;
31594;SDS011;18200;48.726;8.892;2023-07-22T08:31:05;4.95;;;1.75;;
31594;SDS011;18200;48.726;8.892;2023-07-22T08:35:06;7.90;;;1.85;;
31594;SDS011;18200;48.726;8.892;2023-07-22T08:39:07;8.30;;;1.92;;
31594;SDS011;18200;48.726;8.892;2023-07-22T08:43:08;3.50;;;1.80;;
31594;SDS011;18200;48.726;8.892;2023-07-22T08:47:10;6.78;;;1.85;;
31594;SDS011;18200;48.726;8.892;2023-07-22T08:51:16;2.83;;;1.80;;
31594;SDS011;18200;48.726;8.892;2023-07-22T08:55:17;5.65;;;1.80;;
31594;SDS011;18200;48.726;8.892;2023-07-22T08:59:18;3.40;;;1.70;;
31594;SDS011;18200;48.726;8.892;2023-07-22T09:03:20;6.07;;;1.73;;
31594;SDS011;18200;48.726;8.892;2023-07-22T09:07:20;2.10;;;1.67;;
31594;SDS011;18200;48.726;8.892;2023-07-22T09:11:21;3.90;;;1.60;;
31594;SDS011;18200;48.726;8.892;2023-07-22T09:15:21;3.83;;;2.08;;
31594;SDS011;18200;48.726;8.892;2023-07-22T09:19:23;2.40;;;1.67;;
31594;SDS011;18200;48.726;8.892;2023-07-22T09:23:33;2.08;;;1.63;;
31594;SDS011;18200;48.726;8.892;2023-07-22T09:27:34;3.80;;;1.70;;
31594;SDS011;18200;48.726;8.892;2023-07-22T09:31:44;3.38;;;1.50;;
31594;SDS011;18200;48.726;8.892;2023-07-22T09:35:49;2.30;;;1.70;;
31594;SDS011;18200;48.726;8.892;2023-07-22T09:39:50;3.65;;;1.60;;
31594;SDS011;18200;48.726;8.892;2023-07-22T09:43:50;3.92;;;1.60;;
31594;SDS011;18200;48.726;8.892;2023-07-22T09:47:51;2.97;;;1.75;;
31594;SDS011;18200;48.726;8.892;2023-07-22T09:51:54;1.70;;;1.50;;
31594;SDS011;18200;48.726;8.892;2023-07-22T09:55:54;4.15;;;1.73;;
31594;SDS011;18200;48.726;8.892;2023-07-22T09:59:55;5.45;;;1.55;;
31594;SDS011;18200;48.726;8.892;2023-07-22T10:03:56;5.03;;;2.25;;
31594;SDS011;18200;48.726;8.892;2023-07-22T10:07:57;8.80;;;2.20;;
31594;SDS011;18200;48.726;8.892;2023-07-22T10:11:58;2.55;;;1.58;;
31594;SDS011;18200;48.726;8.892;2023-07-22T10:15:59;2.95;;;1.58;;
31594;SDS011;18200;48.726;8.892;2023-07-22T10:20:01;3.53;;;1.63;;
31594;SDS011;18200;48.726;8.892;2023-07-22T10:24:06;1.83;;;1.50;;
31594;SDS011;18200;48.726;8.892;2023-07-22T10:28:07;7.28;;;1.95;;
31594;SDS011;18200;48.726;8.892;2023-07-22T10:32:08;1.75;;;1.45;;
31594;SDS011;18200;48.726;8.892;2023-07-22T10:36:09;2.92;;;1.83;;
31594;SDS011;18200;48.726;8.892;2023-07-22T10:40:27;3.63;;;1.92;;
31594;SDS011;18200;48.726;8.892;2023-07-22T10:44:35;2.75;;;1.95;;
31594;SDS011;18200;48.726;8.892;2023-07-22T10:48:41;3.58;;;1.92;;
31594;SDS011;18200;48.726;8.892;2023-07-22T10:52:45;5.32;;;1.92;;
31594;SDS011;18200;48.726;8.892;2023-07-22T10:56:47;4.43;;;1.88;;
31594;SDS011;18200;48.726;8.892;2023-07-22T11:00:47;3.08;;;2.10;;
31594;SDS011;18200;48.726;8.892;2023-07-22T11:04:47;2.67;;;2.08;;
31594;SDS011;18200;48.726;8.892;2023-07-22T11:08:48;3.60;;;2.10;;
31594;SDS011;18200;48.726;8.892;2023-07-22T11:12:48;3.60;;;2.08;;
31594;SDS011;18200;48.726;8.892;2023-07-22T11:16:49;3.90;;;1.95;;
31594;SDS011;18200;48.726;8.892;2023-07-22T11:20:52;5.25;;;3.30;;
31594;SDS011;18200;48.726;8.892;2023-07-22T11:24:53;4.70;;;2.13;;
31594;SDS011;18200;48.726;8.892;2023-07-22T11:28:53;4.95;;;3.03;;
31594;SDS011;18200;48.726;8.892;2023-07-22T11:32:57;2.30;;;1.88;;
31594;SDS011;18200;48.726;8.892;2023-07-22T11:36:58;3.58;;;1.90;;
31594;SDS011;18200;48.726;8.892;2023-07-22T11:40:59;3.20;;;1.98;;
31594;SDS011;18200;48.726;8.892;2023-07-22T11:44:59;3.10;;;1.88;;
31594;SDS011;18200;48.726;8.892;2023-07-22T11:49:00;2.95;;;2.00;;
31594;SDS011;18200;48.726;8.892;2023-07-22T11:53:00;2.83;;;2.08;;
31594;SDS011;18200;48.726;8.892;2023-07-22T11:57:14;3.72;;;2.05;;
31594;SDS011;18200;48.726;8.892;2023-07-22T12:05:22;2.70;;;1.60;;
31594;SDS011;18200;48.726;8.892;2023-07-22T12:09:23;2.85;;;1.75;;
31594;SDS011;18200;48.726;8.892;2023-07-22T12:13:23;2.72;;;2.20;;
31594;SDS011;18200;48.726;8.892;2023-07-22T12:17:24;4.32;;;2.10;;
31594;SDS011;18200;48.726;8.892;2023-07-22T12:21:24;5.25;;;2.25;;
31594;SDS011;18200;48.726;8.892;2023-07-22T12:25:24;3.53;;;2.50;;
31594;SDS011;18200;48.726;8.892;2023-07-22T12:29:25;3.47;;;2.28;;
31594;SDS011;18200;48.726;8.892;2023-07-22T12:33:25;2.72;;;1.98;;
31594;SDS011;18200;48.726;8.892;2023-07-22T12:37:26;5.78;;;2.55;;
31594;SDS011;18200;48.726;8.892;2023-07-22T12:41:28;3.50;;;2.47;;
31594;SDS011;18200;48.726;8.892;2023-07-22T12:45:28;3.17;;;2.40;;
31594;SDS011;18200;48.726;8.892;2023-07-22T12:49:29;6.25;;;2.22;;
31594;SDS011;18200;48.726;8.892;2023-07-22T12:53:30;4.15;;;2.50;;
31594;SDS011;18200;48.726;8.892;2023-07-22T12:57:30;6.97;;;2.65;;
31594;SDS011;18200;48.726;8.892;2023-07-22T13:01:30;3.13;;;2.37;;
31594;SDS011;18200;48.726;8.892;2023-07-22T13:05:31;3.90;;;2.53;;
31594;SDS011;18200;48.726;8.892;2023-07-22T13:09:31;5.47;;;2.60;;
31594;SDS011;18200;48.726;8.892;2023-07-22T13:13:31;6.05;;;2.90;;
31594;SDS011;18200;48.726;8.892;2023-07-22T13:17:32;6.53;;;2.53;;
31594;SDS011;18200;48.726;8.892;2023-07-22T13:21:32;6.07;;;2.67;;
31594;SDS011;18200;48.726;8.892;2023-07-22T13:25:32;3.20;;;2.40;;
31594;SDS011;18200;48.726;8.892;2023-07-22T13:29:33;4.07;;;2.60;;
31594;SDS011;18200;48.726;8.892;2023-07-22T13:33:33;3.17;;;2.33;;
31594;SDS011;18200;48.726;8.892;2023-07-22T13:37:33;3.40;;;2.30;;
31594;SDS011;18200;48.726;8.892;2023-07-22T13:41:34;5.53;;;2.57;;
31594;SDS011;18200;48.726;8.892;2023-07-22T13:45:34;3.17;;;2.43;;
31594;SDS011;18200;48.726;8.892;2023-07-22T13:49:38;2.97;;;2.00;;
31594;SDS011;18200;48.726;8.892;2023-07-22T13:53:38;4.93;;;2.60;;
31594;SDS011;18200;48.726;8.892;2023-07-22T13:57:38;4.57;;;3.10;;
31594;SDS011;18200;48.726;8.892;2023-07-22T14:01:39;4.45;;;2.70;;
31594;SDS011;18200;48.726;8.892;2023-07-22T14:05:39;6.28;;;2.83;;
31594;SDS011;18200;48.726;8.892;2023-07-22T14:09:41;3.40;;;2.45;;
31594;SDS011;18200;48.726;8.892;2023-07-22T14:13:41;6.53;;;3.03;;
31594;SDS011;18200;48.726;8.892;2023-07-22T14:17:41;5.22;;;2.90;;
31594;SDS011;18200;48.726;8.892;2023-07-22T14:21:42;6.05;;;3.00;;
31594;SDS011;18200;48.726;8.892;2023-07-22T14:25:42;5.82;;;3.30;;
31594;SDS011;18200;48.726;8.892;2023-07-22T14:29:42;4.30;;;3.30;;
31594;SDS011;18200;48.726;8.892;2023-07-22T14:33:43;5.97;;;3.13;;
31594;SDS011;18200;48.726;8.892;2023-07-22T14:37:43;6.55;;;3.17;;
31594;SDS011;18200;48.726;8.892;2023-07-22T14:41:45;4.70;;;3.00;;
31594;SDS011;18200;48.726;8.892;2023-07-22T14:45:45;4.88;;;2.92;;
31594;SDS011;18200;48.726;8.892;2023-07-22T14:49:45;5.13;;;3.20;;
31594;SDS011;18200;48.726;8.892;2023-07-22T14:53:46;5.60;;;3.00;;
31594;SDS011;18200;48.726;8.892;2023-07-22T14:57:46;5.95;;;2.92;;
31594;SDS011;18200;48.726;8.892;2023-07-22T15:01:46;4.80;;;2.87;;
31594;SDS011;18200;48.726;8.892;2023-07-22T15:05:47;3.85;;;2.90;;
31594;SDS011;18200;48.726;8.892;2023-07-22T15:09:47;4.63;;;2.97;;
31594;SDS011;18200;48.726;8.892;2023-07-22T15:13:47;5.45;;;2.75;;
31594;SDS011;18200;48.726;8.892;2023-07-22T15:17:48;5.85;;;3.03;;
31594;SDS011;18200;48.726;8.892;2023-07-22T15:21:48;6.23;;;3.10;;
31594;SDS011;18200;48.726;8.892;2023-07-22T15:25:49;5.57;;;2.87;;
31594;SDS011;18200;48.726;8.892;2023-07-22T15:29:49;5.03;;;3.23;;
31594;SDS011;18200;48.726;8.892;2023-07-22T15:33:49;4.77;;;3.10;;
31594;SDS011;18200;48.726;8.892;2023-07-22T15:37:50;4.10;;;2.58;;
31594;SDS011;18200;48.726;8.892;2023-07-22T15:41:50;5.18;;;3.00;;
31594;SDS011;18200;48.726;8.892;2023-07-22T15:45:50;4.47;;;2.90;;
31594;SDS011;18200;48.726;8.892;2023-07-22T15:49:52;6.03;;;3.17;;
31594;SDS011;18200;48.726;8.892;2023-07-22T15:53:52;5.10;;;2.87;;
31594;SDS011;18200;48.726;8.892;2023-07-22T15:57:53;4.95;;;2.97;;
31594;SDS011;18200;48.726;8.892;2023-07-22T16:01:53;5.15;;;2.88;;
31594;SDS011;18200;48.726;8.892;2023-07-22T16:05:53;6.82;;;3.00;;
31594;SDS011;18200;48.726;8.892;2023-07-22T16:09:54;5.32;;;2.97;;
31594;SDS011;18200;48.726;8.892;2023-07-22T16:13:54;4.90;;;2.53;;
31594;SDS011;18200;48.726;8.892;2023-07-22T16:17:54;5.30;;;3.03;;
31594;SDS011;18200;48.726;8.892;2023-07-22T16:21:55;4.93;;;2.63;;
31594;SDS011;18200;48.726;8.892;2023-07-22T16:25:55;4.67;;;2.57;;
31594;SDS011;18200;48.726;8.892;2023-07-22T16:29:56;3.20;;;2.70;;
31594;SDS011;18200;48.726;8.892;2023-07-22T16:33:56;3.85;;;2.88;;
31594;SDS011;18200;48.726;8.892;2023-07-22T16:37:59;4.68;;;2.92;;
31594;SDS011;18200;48.726;8.892;2023-07-22T16:42:00;4.65;;;2.83;;
31594;SDS011;18200;48.726;8.892;2023-07-22T16:46:00;5.45;;;2.78;;
31594;SDS011;18200;48.726;8.892;2023-07-22T16:50:00;6.28;;;2.95;;
31594;SDS011;18200;48.726;8.892;2023-07-22T16:54:01;5.90;;;2.80;;
31594;SDS011;18200;48.726;8.892;2023-07-22T16:58:01;3.83;;;2.60;;
31594;SDS011;18200;48.726;8.892;2023-07-22T17:02:01;6.57;;;2.90;;
31594;SDS011;18200;48.726;8.892;2023-07-22T17:06:02;7.05;;;2.78;;
31594;SDS011;18200;48.726;8.892;2023-07-22T17:10:02;3.30;;;2.25;;
31594;SDS011;18200;48.726;8.892;2023-07-22T17:14:03;4.20;;;3.08;;
31594;SDS011;18200;48.726;8.892;2023-07-22T17:18:03;3.33;;;2.53;;
31594;SDS011;18200;48.726;8.892;2023-07-22T17:22:04;5.13;;;2.97;;
31594;SDS011;18200;48.726;8.892;2023-07-22T17:26:04;4.45;;;2.95;;
31594;SDS011;18200;48.726;8.892;2023-07-22T17:30:05;5.03;;;2.70;;
31594;SDS011;18200;48.726;8.892;2023-07-22T17:34:05;7.45;;;2.88;;
31594;SDS011;18200;48.726;8.892;2023-07-22T17:38:06;3.92;;;2.47;;
31594;SDS011;18200;48.726;8.892;2023-07-22T17:42:06;6.43;;;2.53;;
31594;SDS011;18200;48.726;8.892;2023-07-22T17:46:07;3.60;;;2.65;;
31594;SDS011;18200;48.726;8.892;2023-07-22T17:50:07;3.88;;;3.08;;
31594;SDS011;18200;48.726;8.892;2023-07-22T17:54:08;4.85;;;3.05;;
31594;SDS011;18200;48.726;8.892;2023-07-22T17:58:09;5.18;;;3.08;;
31594;SDS011;18200;48.726;8.892;2023-07-22T18:02:09;4.80;;;2.60;;
31594;SDS011;18200;48.726;8.892;2023-07-22T18:06:10;3.97;;;3.00;;
31594;SDS011;18200;48.726;8.892;2023-07-22T18:10:10;4.80;;;2.88;;
31594;SDS011;18200;48.726;8.892;2023-07-22T18:14:11;6.63;;;2.90;;
31594;SDS011;18200;48.726;8.892;2023-07-22T18:18:12;3.38;;;2.60;;
31594;SDS011;18200;48.726;8.892;2023-07-22T18:22:12;8.23;;;2.93;;
31594;SDS011;18200;48.726;8.892;2023-07-22T18:26:13;5.72;;;3.13;;
31594;SDS011;18200;48.726;8.892;2023-07-22T18:30:15;4.07;;;2.85;;
31594;SDS011;18200;48.726;8.892;2023-07-22T18:34:15;5.72;;;2.90;;
31594;SDS011;18200;48.726;8.892;2023-07-22T18:38:21;4.07;;;2.75;;
31594;SDS011;18200;48.726;8.892;2023-07-22T18:42:21;4.22;;;2.60;;
31594;SDS011;18200;48.726;8.892;2023-07-22T18:46:22;4.72;;;3.15;;
31594;SDS011;18200;48.726;8.892;2023-07-22T18:50:22;7.15;;;3.58;;
31594;SDS011;18200;48.726;8.892;2023-07-22T18:54:23;4.47;;;2.90;;
31594;SDS011;18200;48.726;8.892;2023-07-22T18:58:23;3.90;;;3.00;;
31594;SDS011;18200;48.726;8.892;2023-07-22T19:02:23;4.75;;;2.90;;
31594;SDS011;18200;48.726;8.892;2023-07-22T19:06:24;4.40;;;3.53;;
31594;SDS011;18200;48.726;8.892;2023-07-22T19:10:24;4.20;;;3.28;;
31594;SDS011;18200;48.726;8.892;2023-07-22T19:14:24;6.18;;;3.65;;
31594;SDS011;18200;48.726;8.892;2023-07-22T19:18:25;4.97;;;3.10;;
31594;SDS011;18200;48.726;8.892;2023-07-22T19:22:25;3.90;;;3.05;;
31594;SDS011;18200;48.726;8.892;2023-07-22T19:26:25;4.78;;;3.22;;
31594;SDS011;18200;48.726;8.892;2023-07-22T19:30:26;5.18;;;2.90;;
31594;SDS011;18200;48.726;8.892;2023-07-22T19:34:26;7.15;;;3.97;;
31594;SDS011;18200;48.726;8.892;2023-07-22T19:38:27;6.90;;;4.28;;
31594;SDS011;18200;48.726;8.892;2023-07-22T19:42:27;8.98;;;5.10;;
31594;SDS011;18200;48.726;8.892;2023-07-22T19:46:27;11.35;;;6.22;;
31594;SDS011;18200;48.726;8.892;2023-07-22T19:50:28;10.45;;;7.10;;
31594;SDS011;18200;48.726;8.892;2023-07-22T19:54:28;12.45;;;7.90;;
31594;SDS011;18200;48.726;8.892;2023-07-22T19:58:29;10.00;;;6.55;;
31594;SDS011;18200;48.726;8.892;2023-07-22T20:02:29;8.05;;;5.07;;
31594;SDS011;18200;48.726;8.892;2023-07-22T20:06:29;8.80;;;4.45;;
31594;SDS011;18200;48.726;8.892;2023-07-22T20:10:30;10.73;;;5.63;;
31594;SDS011;18200;48.726;8.892;2023-07-22T20:14:30;7.60;;;4.10;;
31594;SDS011;18200;48.726;8.892;2023-07-22T20:18:31;5.82;;;3.97;;
31594;SDS011;18200;48.726;8.892;2023-07-22T20:22:31;5.70;;;3.85;;
31594;SDS011;18200;48.726;8.892;2023-07-22T20:26:32;5.43;;;3.45;;
31594;SDS011;18200;48.726;8.892;2023-07-22T20:30:32;5.18;;;3.75;;
31594;SDS011;18200;48.726;8.892;2023-07-22T20:34:33;5.07;;;3.42;;
31594;SDS011;18200;48.726;8.892;2023-07-22T20:38:33;8.00;;;3.70;;
31594;SDS011;18200;48.726;8.892;2023-07-22T20:42:34;5.70;;;3.90;;
31594;SDS011;18200;48.726;8.892;2023-07-22T20:46:34;4.70;;;3.40;;
31594;SDS011;18200;48.726;8.892;2023-07-22T20:50:34;7.18;;;3.58;;
31594;SDS011;18200;48.726;8.892;2023-07-22T20:54:35;9.32;;;4.65;;
31594;SDS011;18200;48.726;8.892;2023-07-22T20:58:35;9.18;;;4.15;;
31594;SDS011;18200;48.726;8.892;2023-07-22T21:02:36;10.55;;;4.63;;
31594;SDS011;18200;48.726;8.892;2023-07-22T21:06:36;15.23;;;5.32;;
31594;SDS011;18200;48.726;8.892;2023-07-22T21:10:37;9.05;;;5.88;;
31594;SDS011;18200;48.726;8.892;2023-07-22T21:14:37;9.02;;;5.10;;
31594;SDS011;18200;48.726;8.892;2023-07-22T21:18:37;11.85;;;5.45;;
31594;SDS011;18200;48.726;8.892;2023-07-22T21:22:38;10.73;;;5.43;;
31594;SDS011;18200;48.726;8.892;2023-07-22T21:26:38;10.65;;;5.50;;
31594;SDS011;18200;48.726;8.892;2023-07-22T21:30:39;13.82;;;6.68;;
31594;SDS011;18200;48.726;8.892;2023-07-22T21:34:39;9.50;;;5.00;;
31594;SDS011;18200;48.726;8.892;2023-07-22T21:38:39;11.93;;;5.25;;
31594;SDS011;18200;48.726;8.892;2023-07-22T21:42:40;8.20;;;5.13;;
31594;SDS011;18200;48.726;8.892;2023-07-22T21:46:40;9.10;;;4.65;;
31594;SDS011;18200;48.726;8.892;2023-07-22T21:50:41;14.25;;;4.90;;
31594;SDS011;18200;48.726;8.892;2023-07-22T21:54:42;8.55;;;4.78;;
31594;SDS011;18200;48.726;8.892;2023-07-22T21:58:42;13.35;;;4.93;;
31594;SDS011;18200;48.726;8.892;2023-07-22T22:02:42;9.82;;;4.80;;
31594;SDS011;18200;48.726;8.892;2023-07-22T22:06:43;10.02;;;4.35;;
31594;SDS011;18200;48.726;8.892;2023-07-22T22:10:44;7.20;;;4.50;;
31594;SDS011;18200;48.726;8.892;2023-07-22T22:14:46;9.40;;;4.47;;
31594;SDS011;18200;48.726;8.892;2023-07-22T22:18:51;8.05;;;4.50;;
31594;SDS011;18200;48.726;8.892;2023-07-22T22:22:51;9.35;;;4.00;;
31594;SDS011;18200;48.726;8.892;2023-07-22T22:26:52;13.18;;;4.70;;
31594;SDS011;18200;48.726;8.892;2023-07-22T22:30:52;7.63;;;4.38;;
31594;SDS011;18200;48.726;8.892;2023-07-22T22:34:52;8.05;;;4.32;;
31594;SDS011;18200;48.726;8.892;2023-07-22T22:38:53;8.55;;;4.05;;
31594;SDS011;18200;48.726;8.892;2023-07-22T22:42:53;9.85;;;4.40;;
31594;SDS011;18200;48.726;8.892;2023-07-22T22:46:53;8.65;;;4.32;;
31594;SDS011;18200;48.726;8.892;2023-07-22T22:50:54;10.30;;;4.30;;
31594;SDS011;18200;48.726;8.892;2023-07-22T22:54:54;7.40;;;4.10;;
31594;SDS011;18200;48.726;8.892;2023-07-22T22:58:54;13.38;;;4.40;;
31594;SDS011;18200;48.726;8.892;2023-07-22T23:02:55;12.15;;;4.18;;
31594;SDS011;18200;48.726;8.892;2023-07-22T23:06:56;8.98;;;3.97;;
31594;SDS011;18200;48.726;8.892;2023-07-22T23:10:56;8.73;;;4.28;;
31594;SDS011;18200;48.726;8.892;2023-07-22T23:14:56;10.90;;;3.95;;
31594;SDS011;18200;48.726;8.892;2023-07-22T23:18:58;9.02;;;4.18;;
31594;SDS011;18200;48.726;8.892;2023-07-22T23:22:59;8.25;;;4.20;;
31594;SDS011;18200;48.726;8.892;2023-07-22T23:26:59;6.45;;;4.20;;
31594;SDS011;18200;48.726;8.892;2023-07-22T23:30:59;8.30;;;4.40;;
31594;SDS011;18200;48.726;8.892;2023-07-22T23:35:01;7.65;;;3.60;;
31594;SDS011;18200;48.726;8.892;2023-07-22T23:39:02;8.48;;;3.92;;
31594;SDS011;18200;48.726;8.892;2023-07-22T23:43:04;6.70;;;3.97;;
31594;SDS011;18200;48.726;8.892;2023-07-22T23:47:05;7.88;;;4.00;;
31594;SDS011;18200;48.726;8.892;2023-07-22T23:51:05;7.32;;;3.85;;
31594;SDS011;18200;48.726;8.892;2023-07-22T23:55:06;6.03;;;3.67;;
31594;SDS011;18200;48.726;8.892;2023-07-22T23:59:06;6.78;;;3.80;;
